sensor_id;sensor_type;location;lat;lon;timestamp;pressure;altitude;pressure_sealevel;temperature;humidity
54648;BME280;40543;53.584;9.858;2022-08-25T00:01:50;53934.44;;;-144.59;94.74
54648;BME280;40543;53.584;9.858;2022-08-25T00:04:17;53914.22;;;-144.59;94.95
54648;BME280;40543;53.584;9.858;2022-08-25T00:06:44;53930.38;;;-144.59;94.92
54648;BME280;40543;53.584;9.858;2022-08-25T00:09:12;53950.59;;;-144.59;94.91
54648;BME280;40543;53.584;9.858;2022-08-25T00:11:39;53970.81;;;-144.59;95.08
54648;BME280;40543;53.584;9.858;2022-08-25T00:14:12;53999.13;;;-144.59;95.02
54648;BME280;40543;53.584;9.858;2022-08-25T00:16:38;53976.88;;;-144.59;95.14
54648;BME280;40543;53.584;9.858;2022-08-25T00:19:07;53995.06;;;-144.59;95.20
54648;BME280;40543;53.584;9.858;2022-08-25T00:21:33;53976.88;;;-144.59;95.46
54648;BME280;40543;53.584;9.858;2022-08-25T00:24:00;54021.34;;;-144.59;96.02
54648;BME280;40543;53.584;9.858;2022-08-25T00:26:26;53999.13;;;-144.59;96.29
54648;BME280;40543;53.584;9.858;2022-08-25T00:28:52;53980.94;;;-144.59;96.42
54648;BME280;40543;53.584;9.858;2022-08-25T00:31:20;53984.97;;;-144.59;96.30
54648;BME280;40543;53.584;9.858;2022-08-25T00:33:48;53948.59;;;-144.59;96.56
54648;BME280;40543;53.584;9.858;2022-08-25T00:36:15;53984.97;;;-144.59;96.28
54648;BME280;40543;53.584;9.858;2022-08-25T00:38:42;53962.72;;;-144.59;96.83
54648;BME280;40543;53.584;9.858;2022-08-25T00:41:10;53968.78;;;-144.59;97.49
54648;BME280;40543;53.584;9.858;2022-08-25T00:46:05;53989.00;;;-144.59;98.17
54648;BME280;40543;53.584;9.858;2022-08-25T00:48:31;54011.25;;;-144.59;98.27
54648;BME280;40543;53.584;9.858;2022-08-25T00:50:56;53920.28;;;-144.59;98.54
54648;BME280;40543;53.584;9.858;2022-08-25T00:53:22;53948.59;;;-144.59;98.45
54648;BME280;40543;53.584;9.858;2022-08-25T00:55:47;53989.00;;;-144.59;98.65
54648;BME280;40543;53.584;9.858;2022-08-25T00:58:26;53991.03;;;-144.59;98.96
54648;BME280;40543;53.584;9.858;2022-08-25T01:00:54;53962.72;;;-144.59;99.27
54648;BME280;40543;53.584;9.858;2022-08-25T01:03:23;53995.06;;;-144.59;99.61
54648;BME280;40543;53.584;9.858;2022-08-25T01:05:49;53968.78;;;-144.59;99.74
54648;BME280;40543;53.584;9.858;2022-08-25T01:08:15;53968.78;;;-144.59;100.00
54648;BME280;40543;53.584;9.858;2022-08-25T01:10:47;53995.06;;;-144.59;100.00
54648;BME280;40543;53.584;9.858;2022-08-25T01:13:18;54021.34;;;-144.59;100.00
54648;BME280;40543;53.584;9.858;2022-08-25T01:15:46;54003.16;;;-144.59;100.00
54648;BME280;40543;53.584;9.858;2022-08-25T01:18:13;53978.91;;;-144.59;100.00
54648;BME280;40543;53.584;9.858;2022-08-25T01:20:40;53991.03;;;-144.59;100.00
54648;BME280;40543;53.584;9.858;2022-08-25T01:23:05;53960.72;;;-144.59;100.00
54648;BME280;40543;53.584;9.858;2022-08-25T01:28:10;54025.41;;;-144.59;100.00
54648;BME280;40543;53.584;9.858;2022-08-25T01:30:36;53958.69;;;-144.59;100.00
54648;BME280;40543;53.584;9.858;2022-08-25T01:33:03;54019.34;;;-144.59;100.00
54648;BME280;40543;53.584;9.858;2022-08-25T01:35:29;53982.94;;;-144.59;100.00
54648;BME280;40543;53.584;9.858;2022-08-25T01:37:54;53993.06;;;-144.59;100.00
54648;BME280;40543;53.584;9.858;2022-08-25T01:40:20;53993.06;;;-144.59;100.00
54648;BME280;40543;53.584;9.858;2022-08-25T01:42:53;54011.25;;;-144.59;100.00
54648;BME280;40543;53.584;9.858;2022-08-25T01:45:22;54011.25;;;-144.59;100.00
54648;BME280;40543;53.584;9.858;2022-08-25T01:47:48;53999.13;;;-144.59;100.00
54648;BME280;40543;53.584;9.858;2022-08-25T01:50:13;54003.16;;;-144.59;100.00
54648;BME280;40543;53.584;9.858;2022-08-25T01:52:58;53999.13;;;-144.59;100.00
54648;BME280;40543;53.584;9.858;2022-08-25T01:55:25;53968.78;;;-144.59;100.00
54648;BME280;40543;53.584;9.858;2022-08-25T01:57:51;54005.19;;;-144.59;100.00
54648;BME280;40543;53.584;9.858;2022-08-25T02:00:18;53999.13;;;-144.59;100.00
54648;BME280;40543;53.584;9.858;2022-08-25T02:02:44;53999.13;;;-144.59;100.00
54648;BME280;40543;53.584;9.858;2022-08-25T02:05:10;54017.31;;;-144.59;100.00
54648;BME280;40543;53.584;9.858;2022-08-25T02:07:38;54015.28;;;-144.59;100.00
54648;BME280;40543;53.584;9.858;2022-08-25T02:10:03;54023.38;;;-144.59;100.00
54648;BME280;40543;53.584;9.858;2022-08-25T02:12:31;54045.59;;;-144.59;100.00
54648;BME280;40543;53.584;9.858;2022-08-25T02:14:57;53993.06;;;-144.59;100.00
54648;BME280;40543;53.584;9.858;2022-08-25T02:17:23;53976.88;;;-144.59;100.00
54648;BME280;40543;53.584;9.858;2022-08-25T02:19:48;53999.13;;;-144.59;100.00
54648;BME280;40543;53.584;9.858;2022-08-25T02:22:14;54009.22;;;-144.59;100.00
54648;BME280;40543;53.584;9.858;2022-08-25T02:24:40;54009.22;;;-144.59;100.00
54648;BME280;40543;53.584;9.858;2022-08-25T02:27:05;54013.25;;;-144.59;100.00
54648;BME280;40543;53.584;9.858;2022-08-25T02:29:31;54051.66;;;-144.59;100.00
54648;BME280;40543;53.584;9.858;2022-08-25T02:31:57;53970.81;;;-144.59;100.00
54648;BME280;40543;53.584;9.858;2022-08-25T02:34:23;54047.63;;;-144.59;100.00
54648;BME280;40543;53.584;9.858;2022-08-25T02:36:48;54053.69;;;-144.59;100.00
54648;BME280;40543;53.584;9.858;2022-08-25T02:39:14;54033.47;;;-144.59;100.00
54648;BME280;40543;53.584;9.858;2022-08-25T02:41:39;54019.34;;;-144.59;100.00
54648;BME280;40543;53.584;9.858;2022-08-25T02:44:06;54019.34;;;-144.59;100.00
54648;BME280;40543;53.584;9.858;2022-08-25T02:46:32;54019.34;;;-144.59;100.00
54648;BME280;40543;53.584;9.858;2022-08-25T02:48:57;54009.22;;;-144.59;100.00
54648;BME280;40543;53.584;9.858;2022-08-25T02:51:24;54063.81;;;-144.59;100.00
54648;BME280;40543;53.584;9.858;2022-08-25T02:53:50;54003.16;;;-144.59;100.00
54648;BME280;40543;53.584;9.858;2022-08-25T02:56:16;54047.63;;;-144.59;100.00
54648;BME280;40543;53.584;9.858;2022-08-25T02:58:42;54047.63;;;-144.59;100.00
54648;BME280;40543;53.584;9.858;2022-08-25T03:01:09;54019.34;;;-144.59;100.00
54648;BME280;40543;53.584;9.858;2022-08-25T03:03:39;54061.78;;;-144.59;100.00
54648;BME280;40543;53.584;9.858;2022-08-25T03:06:07;54033.47;;;-144.59;100.00
54648;BME280;40543;53.584;9.858;2022-08-25T03:08:32;54061.78;;;-144.59;100.00
54648;BME280;40543;53.584;9.858;2022-08-25T03:10:57;54100.19;;;-144.59;100.00
54648;BME280;40543;53.584;9.858;2022-08-25T03:13:23;54043.59;;;-144.59;100.00
54648;BME280;40543;53.584;9.858;2022-08-25T03:15:48;54045.59;;;-144.59;100.00
54648;BME280;40543;53.584;9.858;2022-08-25T03:18:13;54029.44;;;-144.59;100.00
54648;BME280;40543;53.584;9.858;2022-08-25T03:20:40;54005.19;;;-144.59;100.00
54648;BME280;40543;53.584;9.858;2022-08-25T03:23:06;54019.34;;;-144.59;100.00
54648;BME280;40543;53.584;9.858;2022-08-25T03:25:31;54029.44;;;-144.59;100.00
54648;BME280;40543;53.584;9.858;2022-08-25T03:28:15;54055.72;;;-144.59;100.00
54648;BME280;40543;53.584;9.858;2022-08-25T03:30:42;54007.19;;;-144.59;100.00
54648;BME280;40543;53.584;9.858;2022-08-25T03:33:08;54055.72;;;-144.59;100.00
54648;BME280;40543;53.584;9.858;2022-08-25T03:35:33;54071.88;;;-144.59;100.00
54648;BME280;40543;53.584;9.858;2022-08-25T03:37:59;54031.47;;;-144.59;100.00
54648;BME280;40543;53.584;9.858;2022-08-25T03:40:24;53970.81;;;-144.59;100.00
54648;BME280;40543;53.584;9.858;2022-08-25T03:42:50;54047.63;;;-144.59;100.00
54648;BME280;40543;53.584;9.858;2022-08-25T03:45:16;54092.09;;;-144.59;100.00
54648;BME280;40543;53.584;9.858;2022-08-25T03:47:45;54017.31;;;-144.59;100.00
54648;BME280;40543;53.584;9.858;2022-08-25T03:50:11;54077.94;;;-144.59;100.00
54648;BME280;40543;53.584;9.858;2022-08-25T03:52:37;54051.66;;;-144.59;100.00
54648;BME280;40543;53.584;9.858;2022-08-25T03:55:05;54027.41;;;-144.59;100.00
54648;BME280;40543;53.584;9.858;2022-08-25T03:57:31;54039.53;;;-144.59;100.00
54648;BME280;40543;53.584;9.858;2022-08-25T03:59:57;54051.66;;;-144.59;100.00
54648;BME280;40543;53.584;9.858;2022-08-25T04:02:23;54025.41;;;-144.59;100.00
54648;BME280;40543;53.584;9.858;2022-08-25T04:04:48;54051.66;;;-144.59;100.00
54648;BME280;40543;53.584;9.858;2022-08-25T04:07:14;54023.38;;;-144.59;100.00
54648;BME280;40543;53.584;9.858;2022-08-25T04:09:40;54023.38;;;-144.59;100.00
54648;BME280;40543;53.584;9.858;2022-08-25T04:12:06;54053.69;;;-144.59;100.00
54648;BME280;40543;53.584;9.858;2022-08-25T04:14:31;54049.66;;;-144.59;100.00
54648;BME280;40543;53.584;9.858;2022-08-25T04:16:56;54071.88;;;-144.59;100.00
54648;BME280;40543;53.584;9.858;2022-08-25T04:19:22;54053.69;;;-144.59;100.00
54648;BME280;40543;53.584;9.858;2022-08-25T04:21:47;54017.31;;;-144.59;100.00
54648;BME280;40543;53.584;9.858;2022-08-25T04:24:14;54047.63;;;-144.59;100.00
54648;BME280;40543;53.584;9.858;2022-08-25T04:26:43;54055.72;;;-144.59;100.00
54648;BME280;40543;53.584;9.858;2022-08-25T04:29:10;54051.66;;;-144.59;100.00
54648;BME280;40543;53.584;9.858;2022-08-25T04:31:38;54031.47;;;-144.59;100.00
54648;BME280;40543;53.584;9.858;2022-08-25T04:34:05;54057.75;;;-144.59;100.00
54648;BME280;40543;53.584;9.858;2022-08-25T04:36:31;54041.56;;;-144.59;100.00
54648;BME280;40543;53.584;9.858;2022-08-25T04:38:57;54082.00;;;-144.59;100.00
54648;BME280;40543;53.584;9.858;2022-08-25T04:41:23;54051.66;;;-144.59;100.00
54648;BME280;40543;53.584;9.858;2022-08-25T04:43:50;54067.84;;;-144.59;100.00
54648;BME280;40543;53.584;9.858;2022-08-25T04:46:25;54059.75;;;-144.59;100.00
54648;BME280;40543;53.584;9.858;2022-08-25T04:48:52;54084.00;;;-144.59;100.00
54648;BME280;40543;53.584;9.858;2022-08-25T04:51:24;54007.19;;;-144.59;100.00
54648;BME280;40543;53.584;9.858;2022-08-25T04:53:50;54069.88;;;-144.59;100.00
54648;BME280;40543;53.584;9.858;2022-08-25T04:56:18;53993.06;;;-144.59;100.00
54648;BME280;40543;53.584;9.858;2022-08-25T04:58:43;54017.31;;;-144.59;100.00
54648;BME280;40543;53.584;9.858;2022-08-25T05:01:13;54055.72;;;-144.59;100.00
54648;BME280;40543;53.584;9.858;2022-08-25T05:03:40;54065.81;;;-144.59;100.00
54648;BME280;40543;53.584;9.858;2022-08-25T05:06:06;54043.59;;;-144.59;100.00
54648;BME280;40543;53.584;9.858;2022-08-25T05:08:32;54049.66;;;-144.59;100.00
54648;BME280;40543;53.584;9.858;2022-08-25T05:11:03;54055.72;;;-144.59;100.00
54648;BME280;40543;53.584;9.858;2022-08-25T05:13:28;54041.56;;;-144.59;100.00
54648;BME280;40543;53.584;9.858;2022-08-25T05:15:55;53995.06;;;-144.59;100.00
54648;BME280;40543;53.584;9.858;2022-08-25T05:18:23;54067.84;;;-144.59;100.00
54648;BME280;40543;53.584;9.858;2022-08-25T05:20:50;54063.81;;;-144.59;100.00
54648;BME280;40543;53.584;9.858;2022-08-25T05:23:18;54059.75;;;-144.59;100.00
54648;BME280;40543;53.584;9.858;2022-08-25T05:25:43;54063.81;;;-144.59;100.00
54648;BME280;40543;53.584;9.858;2022-08-25T05:28:09;54035.50;;;-144.59;100.00
54648;BME280;40543;53.584;9.858;2022-08-25T05:30:39;54027.41;;;-144.59;100.00
54648;BME280;40543;53.584;9.858;2022-08-25T05:33:05;54039.53;;;-144.59;100.00
54648;BME280;40543;53.584;9.858;2022-08-25T05:35:30;54015.28;;;-144.59;100.00
54648;BME280;40543;53.584;9.858;2022-08-25T05:37:57;54025.41;;;-144.59;100.00
54648;BME280;40543;53.584;9.858;2022-08-25T05:40:23;54047.63;;;-144.59;100.00
54648;BME280;40543;53.584;9.858;2022-08-25T05:42:49;54007.19;;;-144.59;100.00
54648;BME280;40543;53.584;9.858;2022-08-25T05:45:15;54059.75;;;-144.59;100.00
54648;BME280;40543;53.584;9.858;2022-08-25T05:47:40;54057.75;;;-144.59;100.00
54648;BME280;40543;53.584;9.858;2022-08-25T05:50:06;53968.78;;;-144.59;100.00
54648;BME280;40543;53.584;9.858;2022-08-25T05:52:33;54037.53;;;-144.59;100.00
54648;BME280;40543;53.584;9.858;2022-08-25T05:54:58;54005.19;;;-144.59;100.00
54648;BME280;40543;53.584;9.858;2022-08-25T05:57:23;54027.41;;;-144.59;100.00
54648;BME280;40543;53.584;9.858;2022-08-25T05:59:49;54019.34;;;-144.59;100.00
54648;BME280;40543;53.584;9.858;2022-08-25T06:02:14;54029.44;;;-144.59;100.00
54648;BME280;40543;53.584;9.858;2022-08-25T06:04:58;54045.59;;;-144.59;100.00
54648;BME280;40543;53.584;9.858;2022-08-25T06:07:23;54019.34;;;-144.59;100.00
54648;BME280;40543;53.584;9.858;2022-08-25T06:09:49;54043.59;;;-144.59;100.00
54648;BME280;40543;53.584;9.858;2022-08-25T06:12:15;53995.06;;;-144.59;100.00
54648;BME280;40543;53.584;9.858;2022-08-25T06:14:41;53980.94;;;-144.59;100.00
54648;BME280;40543;53.584;9.858;2022-08-25T06:17:07;54007.19;;;-144.59;100.00
54648;BME280;40543;53.584;9.858;2022-08-25T06:19:32;54007.19;;;-144.59;100.00
54648;BME280;40543;53.584;9.858;2022-08-25T06:21:58;54013.25;;;-144.59;100.00
54648;BME280;40543;53.584;9.858;2022-08-25T06:24:25;53978.91;;;-144.59;100.00
54648;BME280;40543;53.584;9.858;2022-08-25T06:26:52;53974.84;;;-144.59;100.00
54648;BME280;40543;53.584;9.858;2022-08-25T06:29:17;53966.78;;;-144.59;100.00
54648;BME280;40543;53.584;9.858;2022-08-25T06:31:44;53972.84;;;-144.59;100.00
54648;BME280;40543;53.584;9.858;2022-08-25T06:34:10;54019.34;;;-144.59;100.00
54648;BME280;40543;53.584;9.858;2022-08-25T06:36:35;54011.25;;;-144.59;100.00
54648;BME280;40543;53.584;9.858;2022-08-25T06:39:01;54003.16;;;-144.59;100.00
54648;BME280;40543;53.584;9.858;2022-08-25T06:41:26;54005.19;;;-144.59;100.00
54648;BME280;40543;53.584;9.858;2022-08-25T06:43:52;53920.28;;;-144.59;100.00
54648;BME280;40543;53.584;9.858;2022-08-25T06:46:21;53962.72;;;-144.59;100.00
54648;BME280;40543;53.584;9.858;2022-08-25T06:48:47;53989.00;;;-144.59;100.00
54648;BME280;40543;53.584;9.858;2022-08-25T06:51:15;53978.91;;;-144.59;100.00
54648;BME280;40543;53.584;9.858;2022-08-25T06:53:43;53974.84;;;-144.59;100.00
54648;BME280;40543;53.584;9.858;2022-08-25T06:56:09;53984.97;;;-144.59;100.00
54648;BME280;40543;53.584;9.858;2022-08-25T06:58:35;53974.84;;;-144.59;100.00
54648;BME280;40543;53.584;9.858;2022-08-25T07:03:35;53962.72;;;-144.59;100.00
54648;BME280;40543;53.584;9.858;2022-08-25T07:06:00;53997.09;;;-144.59;100.00
54648;BME280;40543;53.584;9.858;2022-08-25T07:08:26;53942.50;;;-144.59;100.00
54648;BME280;40543;53.584;9.858;2022-08-25T07:10:51;53950.59;;;-144.59;100.00
54648;BME280;40543;53.584;9.858;2022-08-25T07:13:16;53987.00;;;-144.59;100.00
54648;BME280;40543;53.584;9.858;2022-08-25T07:15:42;53997.09;;;-144.59;100.00
54648;BME280;40543;53.584;9.858;2022-08-25T07:18:08;54005.19;;;-144.59;100.00
54648;BME280;40543;53.584;9.858;2022-08-25T07:20:38;53995.06;;;-144.59;100.00
54648;BME280;40543;53.584;9.858;2022-08-25T07:23:05;53930.38;;;-144.59;100.00
54648;BME280;40543;53.584;9.858;2022-08-25T07:25:31;53987.00;;;-144.59;100.00
54648;BME280;40543;53.584;9.858;2022-08-25T07:27:57;53974.84;;;-144.59;100.00
54648;BME280;40543;53.584;9.858;2022-08-25T07:30:22;53960.72;;;-144.59;100.00
54648;BME280;40543;53.584;9.858;2022-08-25T07:32:48;53960.72;;;-144.59;100.00
54648;BME280;40543;53.584;9.858;2022-08-25T07:35:13;53991.03;;;-144.59;100.00
54648;BME280;40543;53.584;9.858;2022-08-25T07:37:45;53942.50;;;-144.59;100.00
54648;BME280;40543;53.584;9.858;2022-08-25T07:40:19;53980.94;;;-144.59;100.00
54648;BME280;40543;53.584;9.858;2022-08-25T07:42:47;53954.66;;;-144.59;100.00
54648;BME280;40543;53.584;9.858;2022-08-25T07:45:13;53968.78;;;-144.59;100.00
54648;BME280;40543;53.584;9.858;2022-08-25T07:47:39;53946.56;;;-144.59;100.00
54648;BME280;40543;53.584;9.858;2022-08-25T07:50:09;53926.34;;;-144.59;100.00
54648;BME280;40543;53.584;9.858;2022-08-25T07:52:36;53966.78;;;-144.59;100.00
54648;BME280;40543;53.584;9.858;2022-08-25T07:55:02;53946.56;;;-144.59;97.69
54648;BME280;40543;53.584;9.858;2022-08-25T07:57:28;53898.03;;;-144.59;97.37
54648;BME280;40543;53.584;9.858;2022-08-25T07:59:54;53934.44;;;-144.59;95.07
54648;BME280;40543;53.584;9.858;2022-08-25T08:02:20;53926.34;;;-144.59;94.99
54648;BME280;40543;53.584;9.858;2022-08-25T08:04:50;53934.44;;;-144.59;95.88
54648;BME280;40543;53.584;9.858;2022-08-25T08:07:18;53954.66;;;-144.59;96.09
54648;BME280;40543;53.584;9.858;2022-08-25T08:09:45;53912.19;;;-144.59;97.33
54648;BME280;40543;53.584;9.858;2022-08-25T08:12:10;53908.16;;;-144.59;94.85
54648;BME280;40543;53.584;9.858;2022-08-25T08:14:36;53920.28;;;-144.59;94.15
54648;BME280;40543;53.584;9.858;2022-08-25T08:17:08;53889.97;;;-144.59;93.47
54648;BME280;40543;53.584;9.858;2022-08-25T08:19:35;53902.09;;;-144.59;92.90
54648;BME280;40543;53.584;9.858;2022-08-25T08:22:02;53918.25;;;-144.59;92.55
54648;BME280;40543;53.584;9.858;2022-08-25T08:24:29;53910.19;;;-144.59;91.95
54648;BME280;40543;53.584;9.858;2022-08-25T08:26:55;53889.97;;;-144.59;92.08
54648;BME280;40543;53.584;9.858;2022-08-25T08:29:20;53825.28;;;-144.59;91.03
54648;BME280;40543;53.584;9.858;2022-08-25T08:31:46;53853.56;;;-144.59;87.87
54648;BME280;40543;53.584;9.858;2022-08-25T08:34:12;53916.25;;;-144.59;87.92
54648;BME280;40543;53.584;9.858;2022-08-25T08:36:37;53869.75;;;-144.59;89.36
54648;BME280;40543;53.584;9.858;2022-08-25T08:39:03;53918.25;;;-144.59;85.75
54648;BME280;40543;53.584;9.858;2022-08-25T08:53:15;53906.13;;;-144.59;89.58
54648;BME280;40543;53.584;9.858;2022-08-25T08:55:48;53908.16;;;-144.59;89.68
54648;BME280;40543;53.584;9.858;2022-08-25T08:58:22;53930.38;;;-144.59;90.82
54648;BME280;40543;53.584;9.858;2022-08-25T09:00:52;53900.06;;;-144.59;91.69
54648;BME280;40543;53.584;9.858;2022-08-25T09:03:41;53924.31;;;-144.59;89.65
54648;BME280;40543;53.584;9.858;2022-08-25T09:06:40;53944.53;;;-144.59;91.04
54648;BME280;40543;53.584;9.858;2022-08-25T09:09:08;53902.09;;;-144.59;89.05
54648;BME280;40543;53.584;9.858;2022-08-25T09:22:40;53920.28;;;-144.59;91.12
54648;BME280;40543;53.584;9.858;2022-08-25T09:25:32;53944.53;;;-144.59;90.81
54648;BME280;40543;53.584;9.858;2022-08-25T09:28:17;53944.53;;;-144.59;90.15
54648;BME280;40543;53.584;9.858;2022-08-25T09:30:50;53898.03;;;-144.59;89.29
54648;BME280;40543;53.584;9.858;2022-08-25T09:33:23;53908.16;;;-144.59;86.99
54648;BME280;40543;53.584;9.858;2022-08-25T09:35:49;53889.97;;;-144.59;84.71
54648;BME280;40543;53.584;9.858;2022-08-25T09:38:15;53877.84;;;-144.59;84.03
54648;BME280;40543;53.584;9.858;2022-08-25T09:40:47;53849.53;;;-144.59;82.84
54648;BME280;40543;53.584;9.858;2022-08-25T09:46:11;53811.13;;;-144.59;78.38
54648;BME280;40543;53.584;9.858;2022-08-25T09:51:16;53869.75;;;-144.59;77.11
54648;BME280;40543;53.584;9.858;2022-08-25T09:56:19;53772.72;;;-144.59;76.44
54648;BME280;40543;53.584;9.858;2022-08-25T09:58:45;53794.97;;;-144.59;72.87
54648;BME280;40543;53.584;9.858;2022-08-25T10:01:17;53712.09;;;-144.59;71.51
54648;BME280;40543;53.584;9.858;2022-08-25T10:06:29;53699.97;;;-144.59;65.95
54648;BME280;40543;53.584;9.858;2022-08-25T10:08:58;53667.63;;;-144.59;64.62
54648;BME280;40543;53.584;9.858;2022-08-25T10:11:43;53724.22;;;-144.59;63.01
54648;BME280;40543;53.584;9.858;2022-08-25T10:16:41;53687.84;;;-144.59;62.12
54648;BME280;40543;53.584;9.858;2022-08-25T10:19:12;53736.34;;;-144.59;59.06
54648;BME280;40543;53.584;9.858;2022-08-25T10:21:40;53732.31;;;-144.59;58.30
54648;BME280;40543;53.584;9.858;2022-08-25T10:24:08;53689.84;;;-144.59;57.07
54648;BME280;40543;53.584;9.858;2022-08-25T10:35:11;53683.78;;;-144.59;54.25
54648;BME280;40543;53.584;9.858;2022-08-25T10:40:55;53635.28;;;-144.59;52.08
54648;BME280;40543;53.584;9.858;2022-08-25T10:46:02;53673.69;;;-144.59;50.57
54648;BME280;40543;53.584;9.858;2022-08-25T10:56:33;53637.31;;;-144.59;49.42
54648;BME280;40543;53.584;9.858;2022-08-25T10:59:08;53645.38;;;-144.59;49.08
54648;BME280;40543;53.584;9.858;2022-08-25T11:04:24;53635.28;;;-144.59;48.24
54648;BME280;40543;53.584;9.858;2022-08-25T11:07:06;53643.38;;;-144.59;48.36
54648;BME280;40543;53.584;9.858;2022-08-25T11:09:36;53633.25;;;-144.59;47.41
54648;BME280;40543;53.584;9.858;2022-08-25T11:12:04;53602.94;;;-144.59;47.09
54648;BME280;40543;53.584;9.858;2022-08-25T11:14:36;53651.44;;;-144.59;44.87
54648;BME280;40543;53.584;9.858;2022-08-25T11:17:13;53631.25;;;-144.59;45.93
54648;BME280;40543;53.584;9.858;2022-08-25T11:19:43;53667.63;;;-144.59;46.42
54648;BME280;40543;53.584;9.858;2022-08-25T11:22:19;53617.09;;;-144.59;45.96
54648;BME280;40543;53.584;9.858;2022-08-25T11:28:21;53611.03;;;-144.59;45.45
54648;BME280;40543;53.584;9.858;2022-08-25T11:30:51;53606.97;;;-144.59;44.20
54648;BME280;40543;53.584;9.858;2022-08-25T11:33:17;53641.34;;;-144.59;42.78
54648;BME280;40543;53.584;9.858;2022-08-25T11:35:50;53627.19;;;-144.59;42.80
54648;BME280;40543;53.584;9.858;2022-08-25T11:38:52;53643.38;;;-144.59;43.04
54648;BME280;40543;53.584;9.858;2022-08-25T11:41:29;53635.28;;;-144.59;44.50
54648;BME280;40543;53.584;9.858;2022-08-25T11:51:49;53742.41;;;-144.59;46.83
54648;BME280;40543;53.584;9.858;2022-08-25T12:02:39;53819.22;;;-144.59;51.51
54648;BME280;40543;53.584;9.858;2022-08-25T12:10:23;53693.91;;;-144.59;52.77
54648;BME280;40543;53.584;9.858;2022-08-25T12:13:04;53770.72;;;-144.59;52.67
54648;BME280;40543;53.584;9.858;2022-08-25T12:23:34;53784.84;;;-144.59;53.09
54648;BME280;40543;53.584;9.858;2022-08-25T12:29:26;53873.78;;;-144.59;53.56
54648;BME280;40543;53.584;9.858;2022-08-25T12:32:16;53794.97;;;-144.59;53.00
54648;BME280;40543;53.584;9.858;2022-08-25T12:34:51;53813.16;;;-144.59;54.08
54648;BME280;40543;53.584;9.858;2022-08-25T12:37:20;53857.63;;;-144.59;55.07
54648;BME280;40543;53.584;9.858;2022-08-25T12:42:38;53730.28;;;-144.59;53.92
54648;BME280;40543;53.584;9.858;2022-08-25T12:47:38;53641.34;;;-144.59;49.24
54648;BME280;40543;53.584;9.858;2022-08-25T12:52:54;53643.38;;;-144.59;44.12
54648;BME280;40543;53.584;9.858;2022-08-25T12:55:26;53647.41;;;-144.59;44.20
54648;BME280;40543;53.584;9.858;2022-08-25T12:57:54;53590.81;;;-144.59;43.67
54648;BME280;40543;53.584;9.858;2022-08-25T13:03:23;53639.31;;;-144.59;41.32
54648;BME280;40543;53.584;9.858;2022-08-25T13:11:40;53574.66;;;-144.59;38.50
54648;BME280;40543;53.584;9.858;2022-08-25T13:14:51;53609.00;;;-144.59;37.60
54648;BME280;40543;53.584;9.858;2022-08-25T13:17:34;53598.91;;;-144.59;38.66
54648;BME280;40543;53.584;9.858;2022-08-25T13:20:10;53633.25;;;-144.59;38.80
54648;BME280;40543;53.584;9.858;2022-08-25T13:22:36;53611.03;;;-144.59;37.84
54648;BME280;40543;53.584;9.858;2022-08-25T13:25:02;53590.81;;;-144.59;38.14
54648;BME280;40543;53.584;9.858;2022-08-25T13:27:28;53596.88;;;-144.59;37.09
54648;BME280;40543;53.584;9.858;2022-08-25T13:29:56;53621.13;;;-144.59;39.66
54648;BME280;40543;53.584;9.858;2022-08-25T13:32:40;53627.19;;;-144.59;38.70
54648;BME280;40543;53.584;9.858;2022-08-25T13:35:21;53629.22;;;-144.59;38.99
54648;BME280;40543;53.584;9.858;2022-08-25T13:37:48;53691.88;;;-144.59;39.56
54648;BME280;40543;53.584;9.858;2022-08-25T13:40:28;53722.19;;;-144.59;38.45
54648;BME280;40543;53.584;9.858;2022-08-25T13:42:59;53778.78;;;-144.59;40.19
54648;BME280;40543;53.584;9.858;2022-08-25T13:45:27;53801.03;;;-144.59;41.05
54648;BME280;40543;53.584;9.858;2022-08-25T13:47:54;53716.13;;;-144.59;41.52
54648;BME280;40543;53.584;9.858;2022-08-25T13:53:04;53790.91;;;-144.59;43.01
54648;BME280;40543;53.584;9.858;2022-08-25T13:57:58;53671.66;;;-144.59;41.62
54648;BME280;40543;53.584;9.858;2022-08-25T14:00:45;53697.94;;;-144.59;40.55
54648;BME280;40543;53.584;9.858;2022-08-25T14:03:34;53667.63;;;-144.59;40.34
54648;BME280;40543;53.584;9.858;2022-08-25T14:08:34;53679.75;;;-144.59;40.41
54648;BME280;40543;53.584;9.858;2022-08-25T14:11:23;53669.63;;;-144.59;40.28
54648;BME280;40543;53.584;9.858;2022-08-25T14:14:04;53669.63;;;-144.59;39.74
54648;BME280;40543;53.584;9.858;2022-08-25T14:16:36;53667.63;;;-144.59;39.17
54648;BME280;40543;53.584;9.858;2022-08-25T14:19:02;53710.06;;;-144.59;40.54
54648;BME280;40543;53.584;9.858;2022-08-25T14:21:31;53663.56;;;-144.59;40.54
54648;BME280;40543;53.584;9.858;2022-08-25T14:23:57;53710.06;;;-144.59;38.85
54648;BME280;40543;53.584;9.858;2022-08-25T14:26:23;53756.56;;;-144.59;40.41
54648;BME280;40543;53.584;9.858;2022-08-25T14:28:49;53833.38;;;-144.59;40.67
54648;BME280;40543;53.584;9.858;2022-08-25T14:31:24;53792.94;;;-144.59;42.51
54648;BME280;40543;53.584;9.858;2022-08-25T14:33:55;53695.91;;;-144.59;41.17
54648;BME280;40543;53.584;9.858;2022-08-25T14:36:22;53730.28;;;-144.59;41.75
54648;BME280;40543;53.584;9.858;2022-08-25T14:38:47;53724.22;;;-144.59;40.51
54648;BME280;40543;53.584;9.858;2022-08-25T14:41:13;53714.09;;;-144.59;39.66
54648;BME280;40543;53.584;9.858;2022-08-25T14:43:39;53712.09;;;-144.59;39.92
54648;BME280;40543;53.584;9.858;2022-08-25T14:46:17;53706.03;;;-144.59;41.53
54648;BME280;40543;53.584;9.858;2022-08-25T14:48:45;53738.38;;;-144.59;40.70
54648;BME280;40543;53.584;9.858;2022-08-25T14:51:13;53770.72;;;-144.59;40.87
54648;BME280;40543;53.584;9.858;2022-08-25T14:53:40;53736.34;;;-144.59;40.35